createdAt,value
2019-06-10T00:02:23.761Z,11
2019-06-10T00:04:56.075Z,11.9
2019-06-10T00:07:31.827Z,11.6
2019-06-10T00:10:07.382Z,11.9
2019-06-10T00:12:42.566Z,11.4
2019-06-10T00:15:15.360Z,11.3
2019-06-10T00:18:18.356Z,12
2019-06-10T00:20:30.757Z,11.6
2019-06-10T00:23:06.821Z,11.8
2019-06-10T00:25:41.976Z,11.4
2019-06-10T00:28:14.439Z,12
2019-06-10T00:30:46.825Z,12
2019-06-10T00:33:21.777Z,12.4
2019-06-10T00:35:54.211Z,11.7
2019-06-10T00:38:26.771Z,12.2
2019-06-10T00:41:04.238Z,11.1
2019-06-10T00:43:41.399Z,11.9
2019-06-10T00:46:14.182Z,11.4
2019-06-10T00:48:46.721Z,11.7
2019-06-10T00:51:21.231Z,11.2
2019-06-10T00:53:53.878Z,11.4
2019-06-10T00:56:26.167Z,11.8
2019-06-10T00:59:04.047Z,11.5
2019-06-10T01:01:39.343Z,13.3
2019-06-10T01:04:16.562Z,11.1
2019-06-10T01:06:51.713Z,11.7
2019-06-10T01:09:24.295Z,11.9
2019-06-10T01:11:56.659Z,11.7
2019-06-10T01:14:29.155Z,11.9
2019-06-10T01:17:03.888Z,11.8
2019-06-10T01:19:37.565Z,11.6
2019-06-10T01:22:13.773Z,11.6
2019-06-10T01:24:51.318Z,11.9
2019-06-10T01:27:23.638Z,12.1
2019-06-10T01:29:56.086Z,11.7
2019-06-10T01:31:25.848Z,12.4
2019-06-10T01:34:00.975Z,10.6
2019-06-10T01:36:34.924Z,11.5
2019-06-10T01:39:13.486Z,11.4
2019-06-10T01:41:51.559Z,11.7
2019-06-10T01:44:25.364Z,11.3
2019-06-10T01:47:01.272Z,11.6
2019-06-10T01:49:35.075Z,11.7
2019-06-10T01:52:12.335Z,11.8
2019-06-10T01:54:51.917Z,11.4
2019-06-10T01:57:26.040Z,11
2019-06-10T02:00:08.937Z,11.7
2019-06-10T02:02:45.306Z,10.3
2019-06-10T02:05:23.044Z,12.3
2019-06-10T02:07:56.979Z,11.8
2019-06-10T02:10:31.318Z,12.5
2019-06-10T02:13:05.381Z,12
2019-06-10T02:15:41.270Z,12.2
2019-06-10T02:18:16.608Z,12
2019-06-10T02:20:51.862Z,11.3
2019-06-10T02:23:25.918Z,11.1
2019-06-10T02:26:02.136Z,11.9
2019-06-10T02:28:34.717Z,11.4
2019-06-10T02:31:06.925Z,11.5
2019-06-10T02:33:42.225Z,10.9
2019-06-10T02:36:23.192Z,11.6
2019-06-10T02:38:56.123Z,11.6
2019-06-10T02:41:36.025Z,13.9
2019-06-10T02:44:09.190Z,16.2
2019-06-10T02:46:44.190Z,15.9
2019-06-10T02:51:57.766Z,16.5
2019-06-10T02:54:35.557Z,14.3
2019-06-10T02:57:08.335Z,14.3
2019-06-10T02:59:43.777Z,15.9
2019-06-10T03:02:19.949Z,15.6
2019-06-10T03:04:57.125Z,16.3
2019-06-10T03:07:35.392Z,15.6
2019-06-10T03:10:08.384Z,16.8
2019-06-10T03:12:42.599Z,16.2
2019-06-10T03:15:15.973Z,15.9
2019-06-10T03:17:52.280Z,16.1
2019-06-10T03:20:26.108Z,16
2019-06-10T03:22:58.871Z,16.6
2019-06-10T03:25:33.010Z,15.7
2019-06-10T03:28:04.760Z,15.4
2019-06-10T03:31:41.219Z,15.5
2019-06-10T03:34:08.675Z,16.1
2019-06-10T03:36:43.191Z,16.1
2019-06-10T03:39:18.813Z,16.3
2019-06-10T03:41:55.052Z,14.9
2019-06-10T03:44:28.851Z,15.7
2019-06-10T03:47:03.123Z,14.5
2019-06-10T03:49:53.364Z,14.7
2019-06-10T03:52:19.590Z,13.8
2019-06-10T03:55:03.338Z,14.2
2019-06-10T03:57:37.302Z,14
2019-06-10T04:00:14.300Z,12.6
2019-06-10T04:02:48.150Z,12.9
2019-06-10T04:05:26.994Z,15.4
2019-06-10T04:08:03.624Z,15.5
2019-06-10T04:10:38.763Z,15.1
2019-06-10T04:13:13.470Z,14.6
2019-06-10T04:15:47.262Z,15.2
2019-06-10T04:18:26.645Z,14.5
2019-06-10T04:21:03.366Z,16
2019-06-10T04:23:37.288Z,14.6
2019-06-10T04:26:13.069Z,14.2
2019-06-10T04:28:47.060Z,15.3
2019-06-10T04:31:25.118Z,15.2
2019-06-10T04:34:03.483Z,15.6
2019-06-10T04:36:37.324Z,15.4
2019-06-10T04:39:12.825Z,15.4
2019-06-10T04:41:47.191Z,16.2
2019-06-10T04:44:26.025Z,15.8
2019-06-10T04:47:03.158Z,17.4
2019-06-10T04:49:37.135Z,16.6
2019-06-10T04:52:12.473Z,16.9
2019-06-10T04:54:46.330Z,17.1
2019-06-10T04:57:23.851Z,15.9
2019-06-10T05:00:11.927Z,16.2
2019-06-10T05:02:45.354Z,16.4
2019-06-10T05:05:19.400Z,17.2
2019-06-10T05:07:58.911Z,17.9
2019-06-10T05:10:33.462Z,17.2
2019-06-10T05:13:07.251Z,16.6
2019-06-10T05:15:43.613Z,16.5
2019-06-10T05:18:19.327Z,16.7
2019-06-10T05:21:03.143Z,17.6
2019-06-10T05:23:37.045Z,15.8
2019-06-10T05:26:13.551Z,16.1
2019-06-10T05:28:47.506Z,16.1
2019-06-10T05:31:30.088Z,15.4
2019-06-10T05:34:08.553Z,15.5
2019-06-10T05:36:43.971Z,14.2
2019-06-10T05:39:17.926Z,14.4
2019-06-10T05:41:53.342Z,15
2019-06-10T05:44:29.853Z,14.3
2019-06-10T05:47:07.747Z,15.1
2019-06-10T05:49:43.332Z,15.3
2019-06-10T05:52:17.488Z,14.4
2019-06-10T05:54:52.446Z,14.3
2019-06-10T05:57:27.587Z,13.9
2019-06-10T06:00:14.852Z,14.5
2019-06-10T06:02:45.397Z,27.5
2019-06-10T06:05:19.391Z,15.9
2019-06-10T06:08:08.533Z,13.2
2019-06-10T06:10:38.252Z,14.4
2019-06-10T06:13:12.979Z,13.6
2019-06-10T06:15:47.376Z,14.1
2019-06-10T06:18:22.826Z,13.9
2019-06-10T06:20:56.563Z,13.2
2019-06-10T06:23:35.456Z,13.6
2019-06-10T06:26:16.785Z,14.1
2019-06-10T06:28:53.696Z,12.7
2019-06-10T06:31:28.347Z,13.2
2019-06-10T06:34:03.868Z,13.2
2019-06-10T06:36:38.368Z,13.5
2019-06-10T06:39:13.180Z,13.1
2019-06-10T06:41:45.440Z,13.1
2019-06-10T06:44:17.889Z,11.4
2019-06-10T06:46:51.103Z,12.5
2019-06-10T06:49:25.776Z,12.7
2019-06-10T06:52:00.388Z,12.9
2019-06-10T06:54:39.088Z,13
2019-06-10T06:57:14.216Z,13.2
2019-06-10T06:59:46.921Z,12.1
2019-06-10T07:02:19.737Z,11.9
2019-06-10T07:04:54.877Z,12.6
2019-06-10T07:07:27.187Z,13.1
2019-06-10T07:09:59.648Z,13.5
2019-06-10T07:12:36.318Z,14.4
2019-06-10T07:15:12.407Z,13.7
2019-06-10T07:17:46.045Z,15.5
2019-06-10T07:20:18.370Z,13.9
2019-06-10T07:22:53.462Z,13.9
2019-06-10T07:25:26.023Z,14
2019-06-10T07:27:58.304Z,14.2
2019-06-10T07:31:28.276Z,14.8
2019-06-10T07:34:02.940Z,14.8
2019-06-10T07:36:37.321Z,15.1
2019-06-10T07:39:13.649Z,14.1
2019-06-10T07:41:48.349Z,14.1
2019-06-10T07:44:22.964Z,14
2019-06-10T07:46:56.926Z,14.5
2019-06-10T07:49:33.910Z,13.2
2019-06-10T07:52:19.886Z,13.1
2019-06-10T07:54:53.335Z,12.6
2019-06-10T07:57:27.341Z,12.1
2019-06-10T08:00:03.381Z,12.8
2019-06-10T08:02:37.815Z,12.4
2019-06-10T08:05:13.178Z,11.8
2019-06-10T08:07:48.939Z,11.9
2019-06-10T08:10:23.470Z,12.5
2019-06-10T08:12:56.096Z,12.5
2019-06-10T08:15:28.338Z,12.2
2019-06-10T08:18:04.214Z,12.6
2019-06-10T08:20:37.177Z,12.3
2019-06-10T08:23:12.853Z,12.1
2019-06-10T08:25:53.582Z,13.7
2019-06-10T08:28:26.194Z,12.4
2019-06-10T08:30:58.569Z,12.4
2019-06-10T08:33:33.418Z,11.3
2019-06-10T08:36:06.508Z,12.3
2019-06-10T08:38:40.003Z,11.5
2019-06-10T08:41:20.046Z,11.2
2019-06-10T08:43:55.528Z,11.1
2019-06-10T08:46:27.983Z,10.7
2019-06-10T08:49:00.299Z,11.4
2019-06-10T08:51:35.631Z,10.6
2019-06-10T08:54:09.400Z,10.9
2019-06-10T08:56:50.410Z,11.9
2019-06-10T08:59:23.445Z,10.2
2019-06-10T09:01:57.257Z,10.4
2019-06-10T09:04:33.249Z,9.9
2019-06-10T09:07:05.577Z,9.4
2019-06-10T09:09:40.461Z,9.9
2019-06-10T09:12:35.934Z,9.5
2019-06-10T09:14:59.738Z,9.5
2019-06-10T09:17:35.490Z,9.1
2019-06-10T09:20:08.366Z,8.3
2019-06-10T09:22:48.267Z,8.9
2019-06-10T09:25:22.859Z,9.3
2019-06-10T09:27:55.100Z,8.3
2019-06-10T09:31:25.360Z,9.3
2019-06-10T09:33:57.721Z,8.8
2019-06-10T09:36:32.641Z,8
2019-06-10T09:39:04.986Z,7.9
2019-06-10T09:41:50.139Z,8
2019-06-10T09:44:18.270Z,7.1
2019-06-10T09:46:59.458Z,7.6
2019-06-10T09:49:33.691Z,7.4
2019-06-10T09:52:06.118Z,6.8
2019-06-10T09:54:38.908Z,6.9
2019-06-10T09:57:19.541Z,7.9
2019-06-10T09:59:56.776Z,7.8
2019-06-10T10:02:29.452Z,7.2
2019-06-10T10:05:02.848Z,7.4
2019-06-10T10:07:35.824Z,7.2
2019-06-10T10:10:08.607Z,7.8
2019-06-10T10:12:45.843Z,7.5
2019-06-10T10:15:34.218Z,7.5
2019-06-10T10:18:03.005Z,9.1
2019-06-10T10:20:35.383Z,9.6
2019-06-10T10:23:08.045Z,8
2019-06-10T10:25:47.614Z,6.5
2019-06-10T10:28:26.488Z,6.4
2019-06-10T10:30:58.988Z,6
2019-06-10T10:33:33.631Z,6.4
2019-06-10T10:36:05.937Z,6.6
2019-06-10T10:38:38.469Z,6.9
2019-06-10T10:41:13.747Z,6.6
2019-06-10T10:43:50.440Z,6.2
2019-06-10T10:46:25.795Z,5.9
2019-06-10T10:48:58.279Z,6.4
2019-06-10T10:51:32.805Z,6.6
2019-06-10T10:54:32.063Z,6.3
2019-06-10T10:56:49.239Z,6.3
2019-06-10T10:59:25.470Z,6.7
2019-06-10T11:01:57.202Z,5.7
2019-06-10T11:04:29.126Z,5.7
2019-06-10T11:07:01.422Z,5.5
2019-06-10T11:09:33.461Z,5.8
2019-06-10T11:12:05.672Z,5.8
2019-06-10T11:14:37.514Z,6.1
2019-06-10T11:17:09.162Z,6.3
2019-06-10T11:19:40.975Z,6.7
2019-06-10T11:22:12.862Z,6
2019-06-10T11:24:49.164Z,6.2
2019-06-10T11:27:25.152Z,6.7
2019-06-10T11:29:59.336Z,6.3
2019-06-10T11:31:25.913Z,6
2019-06-10T11:33:59.636Z,5.9
2019-06-10T11:36:33.669Z,6.4
2019-06-10T11:39:07.524Z,5.8
2019-06-10T11:41:43.849Z,5.9
2019-06-10T11:44:16.102Z,5.7
2019-06-10T11:46:48.803Z,6.1
2019-06-10T11:49:24.022Z,6
2019-06-10T11:51:59.620Z,5.7
2019-06-10T11:54:50.521Z,6
2019-06-10T11:57:13.415Z,5.5
2019-06-10T11:59:46.093Z,5.8
2019-06-10T12:02:18.647Z,6.7
2019-06-10T12:04:55.088Z,5.7
2019-06-10T12:07:33.452Z,6
2019-06-10T12:10:05.881Z,5.5
2019-06-10T12:12:38.396Z,5.8
2019-06-10T12:15:12.446Z,5.7
2019-06-10T12:17:57.901Z,6.3
2019-06-10T12:20:28.731Z,6.3
2019-06-10T12:23:04.707Z,6
2019-06-10T12:25:39.948Z,6.2
2019-06-10T12:28:15.154Z,6.3
2019-06-10T12:30:47.554Z,6.2
2019-06-10T12:33:25.492Z,6.4
2019-06-10T12:36:03.662Z,6.7
2019-06-10T12:38:39.171Z,7.4
2019-06-10T12:41:14.297Z,5.9
2019-06-10T12:43:46.945Z,6.9
2019-06-10T12:46:19.770Z,7.5
2019-06-10T12:48:58.101Z,7.2
2019-06-10T12:51:33.152Z,7.7
2019-06-10T12:54:06.765Z,7.8
2019-06-10T12:56:39.112Z,7.5
2019-06-10T12:59:14.290Z,8.2
2019-06-10T13:01:47.108Z,7.8
2019-06-10T13:04:19.711Z,8.2
2019-06-10T13:06:52.846Z,8
2019-06-10T13:09:25.235Z,8.3
2019-06-10T13:11:58.081Z,7.7
2019-06-10T13:14:32.862Z,7.4
2019-06-10T13:17:06.028Z,7.6
2019-06-10T13:19:38.458Z,7.8
2019-06-10T13:22:12.805Z,7.2
2019-06-10T13:24:45.249Z,7.4
2019-06-10T13:27:17.574Z,7
2019-06-10T13:29:50.039Z,7.3
2019-06-10T13:31:26.389Z,6.8
2019-06-10T13:34:09.499Z,6.8
2019-06-10T13:36:42.975Z,7.3
2019-06-10T13:39:16.855Z,7.9
2019-06-10T13:41:53.325Z,7.5
2019-06-10T13:44:27.234Z,7.3
2019-06-10T13:47:06.836Z,7.2
2019-06-10T13:49:43.998Z,8.3
2019-06-10T13:52:17.223Z,8
2019-06-10T13:54:52.780Z,7.7
2019-06-10T13:57:25.197Z,7
2019-06-10T13:59:57.479Z,7.4
2019-06-10T14:02:32.589Z,7.7
2019-06-10T14:05:13.361Z,8.6
2019-06-10T14:07:46.489Z,6.8
2019-06-10T14:10:19.522Z,6.9
2019-06-10T14:12:54.607Z,6.7
2019-06-10T14:15:27.379Z,7.5
2019-06-10T14:18:03.480Z,7.7
2019-06-10T14:20:44.250Z,7.2
2019-06-10T14:23:17.905Z,7.5
2019-06-10T14:25:53.490Z,7.5
2019-06-10T14:28:41.134Z,7
2019-06-10T14:31:40.326Z,6.3
2019-06-10T14:33:48.052Z,6.3
2019-06-10T14:36:22.404Z,6.3
2019-06-10T14:38:54.748Z,5.2
2019-06-10T14:41:27.063Z,6
2019-06-10T14:43:59.608Z,5.6
2019-06-10T14:46:33.191Z,6.3
2019-06-10T14:49:06.974Z,5.7
2019-06-10T14:51:43.397Z,5.5
2019-06-10T14:54:18.456Z,5.4
2019-06-10T14:56:57.449Z,6.2
2019-06-10T14:59:30.029Z,5.5
2019-06-10T15:02:03.125Z,5.6
2019-06-10T15:04:35.618Z,5.7
2019-06-10T15:07:09.555Z,6.7
2019-06-10T15:09:43.698Z,5.3
2019-06-10T15:12:17.634Z,6.3
2019-06-10T15:14:52.365Z,6
2019-06-10T15:17:25.258Z,5.6
2019-06-10T15:19:57.919Z,6
2019-06-10T15:22:33.131Z,6.2
2019-06-10T15:25:05.674Z,6.2
2019-06-10T15:27:38.028Z,5.6
2019-06-10T15:31:25.548Z,6.2
2019-06-10T15:33:59.469Z,5.3
2019-06-10T15:36:33.476Z,5.7
2019-06-10T15:39:07.417Z,5.7
2019-06-10T15:41:43.144Z,5.4
2019-06-10T15:46:56.631Z,5.9
2019-06-10T15:49:29.195Z,5.8
2019-06-10T15:52:03.595Z,5.8
2019-06-10T15:54:36.191Z,6
2019-06-10T15:57:39.161Z,5.3
2019-06-10T15:59:52.020Z,6.2
2019-06-10T16:02:25.807Z,5.6
2019-06-10T16:04:58.242Z,6.7
2019-06-10T16:07:32.722Z,6.1
2019-06-10T16:10:05.649Z,5.8
2019-06-10T16:12:38.165Z,6
2019-06-10T16:15:12.694Z,6.3
2019-06-10T16:17:53.849Z,5.2
2019-06-10T16:20:26.116Z,5.5
2019-06-10T16:22:58.766Z,6.8
2019-06-10T16:25:31.639Z,6.2
2019-06-10T16:28:04.847Z,6
2019-06-10T16:30:37.229Z,5.7
2019-06-10T16:33:09.967Z,5.5
2019-06-10T16:35:46.788Z,6.5
2019-06-10T16:38:19.423Z,6.1
2019-06-10T16:40:59.368Z,5.8
2019-06-10T16:43:33.827Z,6
2019-06-10T16:46:06.192Z,5.5
2019-06-10T16:48:38.691Z,6.3
2019-06-10T16:51:13.593Z,5.8
2019-06-10T16:53:46.255Z,6
2019-06-10T16:56:19.869Z,5.7
2019-06-10T16:58:52.611Z,5.9
2019-06-10T17:01:28.695Z,6
2019-06-10T17:04:05.450Z,5.9
2019-06-10T17:06:37.773Z,6.8
2019-06-10T17:09:10.028Z,6.9
2019-06-10T17:11:42.997Z,5.4
2019-06-10T17:14:15.331Z,6
2019-06-10T17:16:47.555Z,6.8
2019-06-10T17:19:25.241Z,6.3
2019-06-10T17:22:00.845Z,5.7
2019-06-10T17:24:34.170Z,5.7
2019-06-10T17:27:06.648Z,6.7
2019-06-10T17:29:39.010Z,5.7
2019-06-10T17:31:32.104Z,5.5
2019-06-10T17:34:09.092Z,6.4
2019-06-10T17:36:43.013Z,5.6
2019-06-10T17:39:16.872Z,6
2019-06-10T17:41:51.193Z,5.6
2019-06-10T17:44:29.460Z,6.1
2019-06-10T17:47:06.439Z,5.9
2019-06-10T17:49:42.180Z,5.6
2019-06-10T17:52:16.283Z,5.8
2019-06-10T17:54:52.660Z,6.5
2019-06-10T17:57:29.918Z,5.4
2019-06-10T18:00:15.084Z,6.4
2019-06-10T18:02:49.107Z,5.9
2019-06-10T18:05:25.271Z,5.3
2019-06-10T18:08:02.592Z,5.8
2019-06-10T18:10:36.522Z,5.9
2019-06-10T18:13:16.885Z,5.7
2019-06-10T18:15:53.687Z,5.7
2019-06-10T18:18:28.574Z,5.7
2019-06-10T18:21:04.001Z,6
2019-06-10T18:23:37.997Z,6.5
2019-06-10T18:26:12.635Z,5.7
2019-06-10T18:29:05.751Z,5.7
2019-06-10T18:31:31.781Z,5.6
2019-06-10T18:34:13.335Z,5.7
2019-06-10T18:36:47.330Z,5.1
2019-06-10T18:39:23.121Z,6
2019-06-10T18:41:56.928Z,5.6
2019-06-10T18:44:35.686Z,6.1
2019-06-10T18:47:13.669Z,6.1
2019-06-10T18:49:46.116Z,5.1
2019-06-10T18:52:18.534Z,6.3
2019-06-10T18:54:53.121Z,6
2019-06-10T18:57:25.375Z,5.5
2019-06-10T18:59:58.069Z,6.6
2019-06-10T19:02:30.614Z,6
2019-06-10T19:05:04.548Z,6.3
2019-06-10T19:07:39.610Z,7
2019-06-10T19:10:17.977Z,11.4
2019-06-10T19:12:50.289Z,6.3
2019-06-10T19:15:25.765Z,5.6
2019-06-10T19:17:58.347Z,5.9
2019-06-10T19:20:38.373Z,6.9
2019-06-10T19:23:16.553Z,5.3
2019-06-10T19:25:49.045Z,6.2
2019-06-10T19:28:24.133Z,6.2
2019-06-10T19:31:25.801Z,5.8
2019-06-10T19:33:58.363Z,5.4
2019-06-10T19:36:31.699Z,6.8
2019-06-10T19:39:05.472Z,5.7
2019-06-10T19:41:44.185Z,6.1
2019-06-10T19:44:18.905Z,6.1
2019-06-10T19:46:52.420Z,5.9
2019-06-10T19:49:25.701Z,5.4
2019-06-10T19:52:03.386Z,5.9
2019-06-10T19:54:36.677Z,5.8
2019-06-10T19:57:09.863Z,5.5
2019-06-10T20:00:10.843Z,5.4
2019-06-10T20:02:26.017Z,6.1
2019-06-10T20:04:58.319Z,5.1
2019-06-10T20:07:30.867Z,5.5
2019-06-10T20:10:03.253Z,5.6
2019-06-10T20:12:36.444Z,6.4
2019-06-10T20:15:10.364Z,5.3
2019-06-10T20:17:45.623Z,6.1
2019-06-10T20:20:18.459Z,5.7
2019-06-10T20:22:57.311Z,5.9
2019-06-10T20:25:30.052Z,6
2019-06-10T20:28:05.222Z,5.7
2019-06-10T20:30:38.942Z,6.3
2019-06-10T20:33:13.702Z,5.4
2019-06-10T20:35:47.146Z,5.4
2019-06-10T20:38:22.450Z,5.6
2019-06-10T20:40:54.882Z,5.6
2019-06-10T20:43:27.652Z,5.6
2019-06-10T20:46:06.022Z,6
2019-06-10T20:48:39.180Z,6.2
2019-06-10T20:51:19.733Z,5.2
2019-06-10T20:53:58.944Z,5
2019-06-10T20:56:33.905Z,5.1
2019-06-10T20:59:06.252Z,5.5
2019-06-10T21:01:39.049Z,5.3
2019-06-10T21:04:19.468Z,5.3
2019-06-10T21:06:53.364Z,5.2
2019-06-10T21:09:25.998Z,5
2019-06-10T21:11:58.286Z,4.9
2019-06-10T21:14:33.307Z,5.4
2019-06-10T21:17:06.017Z,5.3
2019-06-10T21:19:44.279Z,4.7
2019-06-10T21:22:19.990Z,6.1
2019-06-10T21:24:53.814Z,5.3
2019-06-10T21:27:26.509Z,5.3
2019-06-10T21:29:59.030Z,5.2
2019-06-10T21:31:32.413Z,5.5
2019-06-10T21:34:06.838Z,5.1
2019-06-10T21:36:41.439Z,5.7
2019-06-10T21:39:16.708Z,5.3
2019-06-10T21:41:54.706Z,5.9
2019-06-10T21:44:28.894Z,5.2
2019-06-10T21:47:02.864Z,4.6
2019-06-10T21:49:36.791Z,5.1
2019-06-10T21:52:13.167Z,5.2
2019-06-10T21:54:46.907Z,4.8
2019-06-10T21:57:22.348Z,4.9
2019-06-10T21:59:55.577Z,5.6
2019-06-10T22:02:27.774Z,5.3
2019-06-10T22:04:59.725Z,5.1
2019-06-10T22:07:34.602Z,5.2
2019-06-10T22:10:06.918Z,4.4
2019-06-10T22:12:38.775Z,5.8
2019-06-10T22:15:12.755Z,5.6
2019-06-10T22:17:44.701Z,5.2
2019-06-10T22:20:17.576Z,4.9
2019-06-10T22:22:53.592Z,4.5
2019-06-10T22:25:28.482Z,5.7
2019-06-10T22:28:02.934Z,4.1
2019-06-10T22:30:34.605Z,4.7
2019-06-10T22:33:06.387Z,4.6
2019-06-10T22:35:38.024Z,4.4
2019-06-10T22:38:09.931Z,5
2019-06-10T22:40:44.935Z,5.2
2019-06-10T22:43:16.877Z,4.9
2019-06-10T22:45:49.593Z,4.7
2019-06-10T22:48:29.069Z,4.8
2019-06-10T22:51:00.861Z,4.6
2019-06-10T22:53:33.606Z,4.6
2019-06-10T22:56:05.733Z,4.3
2019-06-10T22:58:38.227Z,5.2
2019-06-10T23:01:12.624Z,5
2019-06-10T23:03:44.576Z,5
2019-06-10T23:06:16.763Z,4.8
2019-06-10T23:08:48.428Z,5
2019-06-10T23:11:20.473Z,4.5
2019-06-10T23:13:56.473Z,5.1
2019-06-10T23:16:30.967Z,5.3
2019-06-10T23:19:03.279Z,4.9
2019-06-10T23:21:35.081Z,4.9
2019-06-10T23:24:06.875Z,5
2019-06-10T23:26:39.402Z,5.4
2019-06-10T23:29:14.276Z,5.3
2019-06-10T23:31:26.257Z,4.9
2019-06-10T23:34:02.441Z,4.7
2019-06-10T23:36:37.272Z,5.7
2019-06-10T23:39:13.351Z,4.8
2019-06-10T23:41:48.155Z,4.7
2019-06-10T23:44:23.174Z,5.1
2019-06-10T23:46:57.601Z,5
2019-06-10T23:49:33.630Z,4.7
2019-06-10T23:52:08.039Z,4.4
2019-06-10T23:54:41.867Z,4.3
2019-06-10T23:57:15.992Z,4.7
2019-06-10T23:59:53.784Z,4.6
